sensor_id;sensor_type;location;lat;lon;timestamp;P1;durP1;ratioP1;P2;durP2;ratioP2
11139;SDS011;5624;49.388;11.350;2022-10-30T00:01:28;9.80;;;4.03;;
11139;SDS011;5624;49.388;11.350;2022-10-30T00:03:53;13.33;;;5.30;;
11139;SDS011;5624;49.388;11.350;2022-10-30T00:06:19;13.30;;;4.53;;
11139;SDS011;5624;49.388;11.350;2022-10-30T00:08:45;10.57;;;4.63;;
11139;SDS011;5624;49.388;11.350;2022-10-30T00:11:11;11.15;;;4.50;;
11139;SDS011;5624;49.388;11.350;2022-10-30T00:13:38;11.52;;;5.57;;
11139;SDS011;5624;49.388;11.350;2022-10-30T00:16:05;11.30;;;4.88;;
11139;SDS011;5624;49.388;11.350;2022-10-30T00:18:33;14.57;;;4.97;;
11139;SDS011;5624;49.388;11.350;2022-10-30T00:21:13;8.93;;;4.50;;
11139;SDS011;5624;49.388;11.350;2022-10-30T00:23:46;9.40;;;4.07;;
11139;SDS011;5624;49.388;11.350;2022-10-30T00:26:13;12.07;;;4.60;;
11139;SDS011;5624;49.388;11.350;2022-10-30T00:28:39;12.03;;;4.67;;
11139;SDS011;5624;49.388;11.350;2022-10-30T00:31:05;9.13;;;4.30;;
11139;SDS011;5624;49.388;11.350;2022-10-30T00:33:31;9.90;;;4.70;;
11139;SDS011;5624;49.388;11.350;2022-10-30T00:35:58;7.97;;;4.50;;
11139;SDS011;5624;49.388;11.350;2022-10-30T00:38:23;7.73;;;4.93;;
11139;SDS011;5624;49.388;11.350;2022-10-30T00:40:49;9.47;;;4.73;;
11139;SDS011;5624;49.388;11.350;2022-10-30T00:43:32;13.33;;;5.37;;
11139;SDS011;5624;49.388;11.350;2022-10-30T00:46:23;12.73;;;4.93;;
11139;SDS011;5624;49.388;11.350;2022-10-30T00:48:57;12.10;;;4.80;;
11139;SDS011;5624;49.388;11.350;2022-10-30T00:51:30;9.40;;;4.90;;
11139;SDS011;5624;49.388;11.350;2022-10-30T00:53:58;11.02;;;4.45;;
11139;SDS011;5624;49.388;11.350;2022-10-30T00:56:27;12.02;;;5.00;;
11139;SDS011;5624;49.388;11.350;2022-10-30T00:58:54;14.17;;;4.80;;
11139;SDS011;5624;49.388;11.350;2022-10-30T01:01:24;12.37;;;5.10;;
11139;SDS011;5624;49.388;11.350;2022-10-30T01:03:54;13.48;;;5.45;;
11139;SDS011;5624;49.388;11.350;2022-10-30T01:06:22;10.67;;;4.33;;
11139;SDS011;5624;49.388;11.350;2022-10-30T01:08:48;10.05;;;4.68;;
11139;SDS011;5624;49.388;11.350;2022-10-30T01:11:15;12.43;;;4.83;;
11139;SDS011;5624;49.388;11.350;2022-10-30T01:13:41;10.23;;;5.00;;
11139;SDS011;5624;49.388;11.350;2022-10-30T01:24:07;12.27;;;5.33;;
11139;SDS011;5624;49.388;11.350;2022-10-30T01:37:49;12.07;;;4.43;;
11139;SDS011;5624;49.388;11.350;2022-10-30T01:40:52;11.03;;;4.80;;
11139;SDS011;5624;49.388;11.350;2022-10-30T01:43:18;11.82;;;4.93;;
11139;SDS011;5624;49.388;11.350;2022-10-30T01:48:15;10.57;;;4.20;;
11139;SDS011;5624;49.388;11.350;2022-10-30T01:56:12;9.60;;;4.80;;
11139;SDS011;5624;49.388;11.350;2022-10-30T01:58:54;10.53;;;4.63;;
11139;SDS011;5624;49.388;11.350;2022-10-30T02:01:30;9.73;;;5.13;;
11139;SDS011;5624;49.388;11.350;2022-10-30T02:03:59;15.33;;;4.97;;
11139;SDS011;5624;49.388;11.350;2022-10-30T02:06:26;12.00;;;4.97;;
11139;SDS011;5624;49.388;11.350;2022-10-30T02:08:55;8.73;;;3.97;;
11139;SDS011;5624;49.388;11.350;2022-10-30T02:11:21;7.93;;;4.27;;
11139;SDS011;5624;49.388;11.350;2022-10-30T02:13:49;11.00;;;4.80;;
11139;SDS011;5624;49.388;11.350;2022-10-30T02:16:19;10.97;;;4.40;;
11139;SDS011;5624;49.388;11.350;2022-10-30T02:18:45;12.98;;;5.20;;
11139;SDS011;5624;49.388;11.350;2022-10-30T02:21:11;9.70;;;4.50;;
11139;SDS011;5624;49.388;11.350;2022-10-30T02:23:37;15.38;;;4.60;;
11139;SDS011;5624;49.388;11.350;2022-10-30T02:26:03;9.53;;;4.70;;
11139;SDS011;5624;49.388;11.350;2022-10-30T02:28:29;11.70;;;4.80;;
11139;SDS011;5624;49.388;11.350;2022-10-30T02:30:54;8.73;;;4.30;;
11139;SDS011;5624;49.388;11.350;2022-10-30T02:33:20;8.90;;;4.80;;
11139;SDS011;5624;49.388;11.350;2022-10-30T02:35:48;8.50;;;4.53;;
11139;SDS011;5624;49.388;11.350;2022-10-30T02:38:14;11.52;;;5.05;;
11139;SDS011;5624;49.388;11.350;2022-10-30T02:40:40;6.25;;;3.92;;
11139;SDS011;5624;49.388;11.350;2022-10-30T02:43:05;7.93;;;4.50;;
11139;SDS011;5624;49.388;11.350;2022-10-30T02:45:31;7.82;;;4.20;;
11139;SDS011;5624;49.388;11.350;2022-10-30T02:47:58;10.60;;;4.40;;
11139;SDS011;5624;49.388;11.350;2022-10-30T02:50:24;8.50;;;4.13;;
11139;SDS011;5624;49.388;11.350;2022-10-30T02:52:50;6.30;;;3.87;;
11139;SDS011;5624;49.388;11.350;2022-10-30T02:55:15;10.93;;;4.43;;
11139;SDS011;5624;49.388;11.350;2022-10-30T02:57:41;12.37;;;4.50;;
11139;SDS011;5624;49.388;11.350;2022-10-30T03:00:07;8.97;;;4.17;;
11139;SDS011;5624;49.388;11.350;2022-10-30T03:02:33;8.63;;;4.00;;
11139;SDS011;5624;49.388;11.350;2022-10-30T03:04:59;7.47;;;4.40;;
11139;SDS011;5624;49.388;11.350;2022-10-30T03:07:24;11.43;;;5.20;;
11139;SDS011;5624;49.388;11.350;2022-10-30T03:09:50;10.43;;;4.53;;
11139;SDS011;5624;49.388;11.350;2022-10-30T03:12:18;12.88;;;4.45;;
11139;SDS011;5624;49.388;11.350;2022-10-30T03:14:43;9.43;;;5.33;;
11139;SDS011;5624;49.388;11.350;2022-10-30T03:17:09;10.30;;;4.30;;
11139;SDS011;5624;49.388;11.350;2022-10-30T03:19:35;8.80;;;4.10;;
11139;SDS011;5624;49.388;11.350;2022-10-30T03:22:00;8.60;;;4.30;;
11139;SDS011;5624;49.388;11.350;2022-10-30T03:24:26;10.80;;;5.27;;
11139;SDS011;5624;49.388;11.350;2022-10-30T03:26:52;14.50;;;5.47;;
11139;SDS011;5624;49.388;11.350;2022-10-30T03:29:17;11.00;;;4.77;;
11139;SDS011;5624;49.388;11.350;2022-10-30T03:31:43;9.97;;;4.47;;
11139;SDS011;5624;49.388;11.350;2022-10-30T03:34:08;13.87;;;5.13;;
11139;SDS011;5624;49.388;11.350;2022-10-30T03:36:34;10.60;;;4.30;;
11139;SDS011;5624;49.388;11.350;2022-10-30T03:39:00;12.47;;;4.50;;
11139;SDS011;5624;49.388;11.350;2022-10-30T03:41:25;8.63;;;4.95;;
11139;SDS011;5624;49.388;11.350;2022-10-30T03:43:51;10.93;;;5.00;;
11139;SDS011;5624;49.388;11.350;2022-10-30T03:46:16;10.02;;;4.70;;
11139;SDS011;5624;49.388;11.350;2022-10-30T03:48:42;7.80;;;4.40;;
11139;SDS011;5624;49.388;11.350;2022-10-30T03:51:08;8.75;;;4.00;;
11139;SDS011;5624;49.388;11.350;2022-10-30T03:53:34;8.17;;;4.40;;
11139;SDS011;5624;49.388;11.350;2022-10-30T03:56:00;13.27;;;4.83;;
11139;SDS011;5624;49.388;11.350;2022-10-30T03:58:27;10.53;;;5.10;;
11139;SDS011;5624;49.388;11.350;2022-10-30T04:00:53;7.97;;;5.10;;
11139;SDS011;5624;49.388;11.350;2022-10-30T04:03:19;6.23;;;4.00;;
11139;SDS011;5624;49.388;11.350;2022-10-30T04:05:45;8.97;;;3.93;;
11139;SDS011;5624;49.388;11.350;2022-10-30T04:08:15;11.60;;;4.63;;
11139;SDS011;5624;49.388;11.350;2022-10-30T04:10:44;9.57;;;4.30;;
11139;SDS011;5624;49.388;11.350;2022-10-30T04:13:11;11.10;;;4.93;;
11139;SDS011;5624;49.388;11.350;2022-10-30T04:15:38;11.57;;;4.80;;
11139;SDS011;5624;49.388;11.350;2022-10-30T04:18:04;11.67;;;4.77;;
11139;SDS011;5624;49.388;11.350;2022-10-30T04:20:31;8.00;;;4.77;;
11139;SDS011;5624;49.388;11.350;2022-10-30T04:22:57;8.37;;;4.10;;
11139;SDS011;5624;49.388;11.350;2022-10-30T04:25:25;10.70;;;4.70;;
11139;SDS011;5624;49.388;11.350;2022-10-30T04:27:51;11.20;;;4.67;;
11139;SDS011;5624;49.388;11.350;2022-10-30T04:30:18;13.10;;;5.57;;
11139;SDS011;5624;49.388;11.350;2022-10-30T04:32:58;7.33;;;4.90;;
11139;SDS011;5624;49.388;11.350;2022-10-30T04:35:24;11.27;;;4.80;;
11139;SDS011;5624;49.388;11.350;2022-10-30T04:37:58;9.87;;;3.90;;
11139;SDS011;5624;49.388;11.350;2022-10-30T04:40:35;8.87;;;4.27;;
11139;SDS011;5624;49.388;11.350;2022-10-30T04:43:03;8.83;;;4.77;;
11139;SDS011;5624;49.388;11.350;2022-10-30T04:45:29;11.43;;;5.37;;
11139;SDS011;5624;49.388;11.350;2022-10-30T04:47:59;9.47;;;4.50;;
11139;SDS011;5624;49.388;11.350;2022-10-30T04:50:30;9.77;;;4.80;;
11139;SDS011;5624;49.388;11.350;2022-10-30T04:53:00;11.67;;;5.53;;
11139;SDS011;5624;49.388;11.350;2022-10-30T04:55:27;11.73;;;5.40;;
11139;SDS011;5624;49.388;11.350;2022-10-30T04:57:57;15.37;;;4.70;;
11139;SDS011;5624;49.388;11.350;2022-10-30T05:00:25;8.50;;;4.60;;
11139;SDS011;5624;49.388;11.350;2022-10-30T05:02:51;9.63;;;4.40;;
11139;SDS011;5624;49.388;11.350;2022-10-30T05:05:17;11.70;;;5.27;;
11139;SDS011;5624;49.388;11.350;2022-10-30T05:07:43;11.27;;;4.90;;
11139;SDS011;5624;49.388;11.350;2022-10-30T05:10:12;11.60;;;5.53;;
11139;SDS011;5624;49.388;11.350;2022-10-30T05:12:42;8.97;;;4.87;;
11139;SDS011;5624;49.388;11.350;2022-10-30T05:15:08;10.80;;;4.73;;
11139;SDS011;5624;49.388;11.350;2022-10-30T05:17:34;8.73;;;5.00;;
11139;SDS011;5624;49.388;11.350;2022-10-30T05:20:00;9.40;;;4.80;;
11139;SDS011;5624;49.388;11.350;2022-10-30T05:22:25;10.50;;;4.83;;
11139;SDS011;5624;49.388;11.350;2022-10-30T05:24:51;8.87;;;4.50;;
11139;SDS011;5624;49.388;11.350;2022-10-30T05:27:17;8.90;;;4.37;;
11139;SDS011;5624;49.388;11.350;2022-10-30T05:29:42;9.60;;;5.10;;
11139;SDS011;5624;49.388;11.350;2022-10-30T05:32:08;11.27;;;4.43;;
11139;SDS011;5624;49.388;11.350;2022-10-30T05:34:34;15.13;;;4.70;;
11139;SDS011;5624;49.388;11.350;2022-10-30T05:36:59;12.37;;;4.40;;
11139;SDS011;5624;49.388;11.350;2022-10-30T05:39:25;14.60;;;5.40;;
11139;SDS011;5624;49.388;11.350;2022-10-30T05:41:52;11.00;;;4.73;;
11139;SDS011;5624;49.388;11.350;2022-10-30T05:44:17;12.53;;;4.97;;
11139;SDS011;5624;49.388;11.350;2022-10-30T05:46:43;10.70;;;5.20;;
11139;SDS011;5624;49.388;11.350;2022-10-30T05:49:08;11.27;;;4.97;;
11139;SDS011;5624;49.388;11.350;2022-10-30T05:51:34;14.10;;;4.80;;
11139;SDS011;5624;49.388;11.350;2022-10-30T05:54:00;9.53;;;4.80;;
11139;SDS011;5624;49.388;11.350;2022-10-30T05:56:26;11.67;;;4.87;;
11139;SDS011;5624;49.388;11.350;2022-10-30T05:58:52;8.73;;;5.03;;
11139;SDS011;5624;49.388;11.350;2022-10-30T06:01:17;9.63;;;5.23;;
11139;SDS011;5624;49.388;11.350;2022-10-30T06:03:43;11.33;;;5.27;;
11139;SDS011;5624;49.388;11.350;2022-10-30T06:06:09;11.57;;;5.77;;
11139;SDS011;5624;49.388;11.350;2022-10-30T06:08:35;16.03;;;7.03;;
11139;SDS011;5624;49.388;11.350;2022-10-30T06:11:00;11.53;;;6.50;;
11139;SDS011;5624;49.388;11.350;2022-10-30T06:13:26;12.27;;;5.67;;
11139;SDS011;5624;49.388;11.350;2022-10-30T06:15:54;13.47;;;5.43;;
11139;SDS011;5624;49.388;11.350;2022-10-30T06:18:21;12.47;;;5.73;;
11139;SDS011;5624;49.388;11.350;2022-10-30T06:20:47;12.17;;;6.17;;
11139;SDS011;5624;49.388;11.350;2022-10-30T06:23:13;10.57;;;6.00;;
11139;SDS011;5624;49.388;11.350;2022-10-30T06:25:39;11.40;;;5.43;;
11139;SDS011;5624;49.388;11.350;2022-10-30T06:28:05;14.83;;;5.47;;
11139;SDS011;5624;49.388;11.350;2022-10-30T06:30:31;8.57;;;4.60;;
11139;SDS011;5624;49.388;11.350;2022-10-30T06:33:01;6.67;;;4.83;;
11139;SDS011;5624;49.388;11.350;2022-10-30T06:35:28;10.67;;;5.40;;
11139;SDS011;5624;49.388;11.350;2022-10-30T06:37:54;9.60;;;4.73;;
11139;SDS011;5624;49.388;11.350;2022-10-30T06:40:22;12.03;;;5.00;;
11139;SDS011;5624;49.388;11.350;2022-10-30T06:42:49;9.60;;;4.73;;
11139;SDS011;5624;49.388;11.350;2022-10-30T06:45:16;10.33;;;4.93;;
11139;SDS011;5624;49.388;11.350;2022-10-30T06:47:43;13.63;;;5.30;;
11139;SDS011;5624;49.388;11.350;2022-10-30T06:50:11;11.07;;;5.97;;
11139;SDS011;5624;49.388;11.350;2022-10-30T06:52:38;11.37;;;6.13;;
11139;SDS011;5624;49.388;11.350;2022-10-30T06:55:03;9.40;;;4.90;;
11139;SDS011;5624;49.388;11.350;2022-10-30T06:57:30;13.47;;;5.30;;
11139;SDS011;5624;49.388;11.350;2022-10-30T06:59:56;9.67;;;5.70;;
11139;SDS011;5624;49.388;11.350;2022-10-30T07:02:21;9.77;;;5.80;;
11139;SDS011;5624;49.388;11.350;2022-10-30T07:04:47;13.03;;;5.73;;
11139;SDS011;5624;49.388;11.350;2022-10-30T07:07:13;13.10;;;6.10;;
11139;SDS011;5624;49.388;11.350;2022-10-30T07:09:39;11.20;;;5.87;;
11139;SDS011;5624;49.388;11.350;2022-10-30T07:12:05;13.73;;;6.00;;
11139;SDS011;5624;49.388;11.350;2022-10-30T07:14:31;10.27;;;5.00;;
11139;SDS011;5624;49.388;11.350;2022-10-30T07:16:57;9.80;;;5.40;;
11139;SDS011;5624;49.388;11.350;2022-10-30T07:19:23;9.20;;;5.93;;
11139;SDS011;5624;49.388;11.350;2022-10-30T07:21:49;14.00;;;5.37;;
11139;SDS011;5624;49.388;11.350;2022-10-30T07:24:14;11.57;;;5.38;;
11139;SDS011;5624;49.388;11.350;2022-10-30T07:26:40;12.70;;;4.63;;
11139;SDS011;5624;49.388;11.350;2022-10-30T07:29:06;14.43;;;5.30;;
11139;SDS011;5624;49.388;11.350;2022-10-30T07:31:32;14.70;;;5.93;;
11139;SDS011;5624;49.388;11.350;2022-10-30T07:33:58;10.03;;;4.80;;
11139;SDS011;5624;49.388;11.350;2022-10-30T07:36:24;12.40;;;5.23;;
11139;SDS011;5624;49.388;11.350;2022-10-30T07:38:50;12.13;;;4.87;;
11139;SDS011;5624;49.388;11.350;2022-10-30T07:41:16;11.10;;;5.05;;
11139;SDS011;5624;49.388;11.350;2022-10-30T07:43:43;7.17;;;4.53;;
11139;SDS011;5624;49.388;11.350;2022-10-30T07:46:09;8.70;;;5.00;;
11139;SDS011;5624;49.388;11.350;2022-10-30T07:48:35;13.55;;;6.15;;
11139;SDS011;5624;49.388;11.350;2022-10-30T07:51:01;9.80;;;5.10;;
11139;SDS011;5624;49.388;11.350;2022-10-30T07:53:27;8.60;;;4.55;;
11139;SDS011;5624;49.388;11.350;2022-10-30T07:55:52;6.07;;;4.78;;
11139;SDS011;5624;49.388;11.350;2022-10-30T07:58:18;14.40;;;4.95;;
11139;SDS011;5624;49.388;11.350;2022-10-30T08:00:43;12.95;;;5.68;;
11139;SDS011;5624;49.388;11.350;2022-10-30T08:03:10;9.85;;;5.70;;
11139;SDS011;5624;49.388;11.350;2022-10-30T08:05:36;10.02;;;5.55;;
11139;SDS011;5624;49.388;11.350;2022-10-30T08:08:02;13.20;;;6.13;;
11139;SDS011;5624;49.388;11.350;2022-10-30T08:10:28;9.23;;;5.50;;
11139;SDS011;5624;49.388;11.350;2022-10-30T08:12:53;16.33;;;5.65;;
11139;SDS011;5624;49.388;11.350;2022-10-30T08:15:19;13.05;;;5.13;;
11139;SDS011;5624;49.388;11.350;2022-10-30T08:17:48;13.45;;;4.90;;
11139;SDS011;5624;49.388;11.350;2022-10-30T08:20:15;12.82;;;5.72;;
11139;SDS011;5624;49.388;11.350;2022-10-30T08:22:45;8.57;;;4.68;;
11139;SDS011;5624;49.388;11.350;2022-10-30T08:25:22;11.05;;;5.20;;
11139;SDS011;5624;49.388;11.350;2022-10-30T08:30:19;14.18;;;5.45;;
11139;SDS011;5624;49.388;11.350;2022-10-30T08:32:45;13.18;;;5.88;;
11139;SDS011;5624;49.388;11.350;2022-10-30T08:35:11;9.48;;;5.55;;
11139;SDS011;5624;49.388;11.350;2022-10-30T08:37:37;12.00;;;5.15;;
11139;SDS011;5624;49.388;11.350;2022-10-30T08:40:02;11.88;;;4.97;;
11139;SDS011;5624;49.388;11.350;2022-10-30T08:42:28;10.38;;;4.30;;
11139;SDS011;5624;49.388;11.350;2022-10-30T08:44:54;11.77;;;5.18;;
11139;SDS011;5624;49.388;11.350;2022-10-30T08:47:20;11.55;;;4.72;;
11139;SDS011;5624;49.388;11.350;2022-10-30T08:49:45;9.20;;;4.95;;
11139;SDS011;5624;49.388;11.350;2022-10-30T08:52:11;11.02;;;5.72;;
11139;SDS011;5624;49.388;11.350;2022-10-30T08:54:36;10.57;;;4.72;;
11139;SDS011;5624;49.388;11.350;2022-10-30T08:57:02;11.10;;;5.18;;
11139;SDS011;5624;49.388;11.350;2022-10-30T08:59:28;9.98;;;5.13;;
11139;SDS011;5624;49.388;11.350;2022-10-30T09:01:53;9.38;;;4.85;;
11139;SDS011;5624;49.388;11.350;2022-10-30T09:04:19;11.55;;;5.28;;
11139;SDS011;5624;49.388;11.350;2022-10-30T09:06:45;12.10;;;5.60;;
11139;SDS011;5624;49.388;11.350;2022-10-30T09:09:10;12.38;;;5.55;;
11139;SDS011;5624;49.388;11.350;2022-10-30T09:11:36;9.77;;;4.97;;
11139;SDS011;5624;49.388;11.350;2022-10-30T09:14:01;10.57;;;5.18;;
11139;SDS011;5624;49.388;11.350;2022-10-30T09:16:27;11.30;;;4.57;;
11139;SDS011;5624;49.388;11.350;2022-10-30T09:18:53;9.48;;;5.47;;
11139;SDS011;5624;49.388;11.350;2022-10-30T09:21:18;9.93;;;5.30;;
11139;SDS011;5624;49.388;11.350;2022-10-30T09:23:44;11.20;;;4.75;;
11139;SDS011;5624;49.388;11.350;2022-10-30T09:26:10;9.23;;;4.93;;
11139;SDS011;5624;49.388;11.350;2022-10-30T09:28:35;9.77;;;5.22;;
11139;SDS011;5624;49.388;11.350;2022-10-30T09:31:01;12.13;;;5.22;;
11139;SDS011;5624;49.388;11.350;2022-10-30T09:33:27;9.13;;;5.13;;
11139;SDS011;5624;49.388;11.350;2022-10-30T09:35:53;12.88;;;5.30;;
11139;SDS011;5624;49.388;11.350;2022-10-30T09:38:18;10.98;;;5.15;;
11139;SDS011;5624;49.388;11.350;2022-10-30T09:41:02;8.38;;;5.25;;
11139;SDS011;5624;49.388;11.350;2022-10-30T09:43:36;14.20;;;5.35;;
11139;SDS011;5624;49.388;11.350;2022-10-30T09:46:06;10.93;;;4.30;;
11139;SDS011;5624;49.388;11.350;2022-10-30T09:54:32;13.65;;;4.88;;
11139;SDS011;5624;49.388;11.350;2022-10-30T10:00:06;15.75;;;5.05;;
11139;SDS011;5624;49.388;11.350;2022-10-30T10:05:25;12.60;;;5.72;;
11139;SDS011;5624;49.388;11.350;2022-10-30T10:07:57;12.68;;;5.93;;
11139;SDS011;5624;49.388;11.350;2022-10-30T10:10:36;11.02;;;4.45;;
11139;SDS011;5624;49.388;11.350;2022-10-30T10:15:58;9.20;;;5.47;;
11139;SDS011;5624;49.388;11.350;2022-10-30T10:18:44;9.43;;;5.78;;
11139;SDS011;5624;49.388;11.350;2022-10-30T10:21:30;12.50;;;5.32;;
11139;SDS011;5624;49.388;11.350;2022-10-30T10:24:01;14.43;;;5.68;;
11139;SDS011;5624;49.388;11.350;2022-10-30T10:38:25;12.63;;;4.57;;
11139;SDS011;5624;49.388;11.350;2022-10-30T10:52:01;9.52;;;5.13;;
11139;SDS011;5624;49.388;11.350;2022-10-30T10:54:41;12.18;;;5.53;;
11139;SDS011;5624;49.388;11.350;2022-10-30T10:57:19;10.18;;;5.30;;
11139;SDS011;5624;49.388;11.350;2022-10-30T10:59:48;9.20;;;5.32;;
11139;SDS011;5624;49.388;11.350;2022-10-30T11:08:00;10.82;;;4.80;;
11139;SDS011;5624;49.388;11.350;2022-10-30T11:10:39;9.80;;;4.78;;
11139;SDS011;5624;49.388;11.350;2022-10-30T11:13:04;12.48;;;5.15;;
11139;SDS011;5624;49.388;11.350;2022-10-30T11:18:20;9.50;;;5.07;;
11139;SDS011;5624;49.388;11.350;2022-10-30T11:20:52;9.25;;;4.60;;
11139;SDS011;5624;49.388;11.350;2022-10-30T11:25:55;10.80;;;5.25;;
11139;SDS011;5624;49.388;11.350;2022-10-30T11:28:44;11.52;;;5.97;;
11139;SDS011;5624;49.388;11.350;2022-10-30T11:33:48;10.10;;;5.10;;
11139;SDS011;5624;49.388;11.350;2022-10-30T11:36:15;11.55;;;5.00;;
11139;SDS011;5624;49.388;11.350;2022-10-30T11:38:42;13.57;;;5.65;;
11139;SDS011;5624;49.388;11.350;2022-10-30T11:41:08;16.05;;;5.60;;
11139;SDS011;5624;49.388;11.350;2022-10-30T11:43:34;10.32;;;5.07;;
11139;SDS011;5624;49.388;11.350;2022-10-30T11:46:02;11.15;;;4.75;;
11139;SDS011;5624;49.388;11.350;2022-10-30T11:48:33;12.65;;;4.75;;
11139;SDS011;5624;49.388;11.350;2022-10-30T11:51:02;11.82;;;5.20;;
11139;SDS011;5624;49.388;11.350;2022-10-30T11:53:29;10.90;;;5.13;;
11139;SDS011;5624;49.388;11.350;2022-10-30T11:56:13;10.73;;;4.40;;
11139;SDS011;5624;49.388;11.350;2022-10-30T11:58:54;10.43;;;4.38;;
11139;SDS011;5624;49.388;11.350;2022-10-30T12:03:49;13.10;;;5.00;;
11139;SDS011;5624;49.388;11.350;2022-10-30T12:06:17;8.73;;;4.68;;
11139;SDS011;5624;49.388;11.350;2022-10-30T12:09:03;12.70;;;5.22;;
11139;SDS011;5624;49.388;11.350;2022-10-30T12:11:37;10.55;;;4.97;;
11139;SDS011;5624;49.388;11.350;2022-10-30T12:14:12;10.15;;;4.90;;
11139;SDS011;5624;49.388;11.350;2022-10-30T12:16:46;14.85;;;5.70;;
11139;SDS011;5624;49.388;11.350;2022-10-30T12:19:14;10.38;;;4.95;;
11139;SDS011;5624;49.388;11.350;2022-10-30T12:21:45;13.80;;;5.38;;
11139;SDS011;5624;49.388;11.350;2022-10-30T12:24:16;12.00;;;4.90;;
11139;SDS011;5624;49.388;11.350;2022-10-30T12:27:02;9.77;;;4.47;;
11139;SDS011;5624;49.388;11.350;2022-10-30T12:29:43;9.25;;;4.55;;
11139;SDS011;5624;49.388;11.350;2022-10-30T12:32:13;13.38;;;5.03;;
11139;SDS011;5624;49.388;11.350;2022-10-30T12:37:14;9.40;;;4.65;;
11139;SDS011;5624;49.388;11.350;2022-10-30T12:42:19;11.55;;;5.00;;
11139;SDS011;5624;49.388;11.350;2022-10-30T12:56:29;12.52;;;4.00;;
11139;SDS011;5624;49.388;11.350;2022-10-30T13:01:45;9.63;;;4.20;;
11139;SDS011;5624;49.388;11.350;2022-10-30T13:04:19;8.85;;;4.28;;
11139;SDS011;5624;49.388;11.350;2022-10-30T13:09:29;8.40;;;4.05;;
11139;SDS011;5624;49.388;11.350;2022-10-30T13:12:17;9.85;;;4.53;;
11139;SDS011;5624;49.388;11.350;2022-10-30T13:17:18;12.40;;;4.53;;
11139;SDS011;5624;49.388;11.350;2022-10-30T13:19:44;8.27;;;3.92;;
11139;SDS011;5624;49.388;11.350;2022-10-30T13:22:22;9.98;;;4.10;;
11139;SDS011;5624;49.388;11.350;2022-10-30T13:25:23;12.27;;;4.40;;
11139;SDS011;5624;49.388;11.350;2022-10-30T13:30:33;8.32;;;4.28;;
11139;SDS011;5624;49.388;11.350;2022-10-30T13:33:18;11.25;;;4.00;;
11139;SDS011;5624;49.388;11.350;2022-10-30T13:35:55;9.65;;;4.20;;
11139;SDS011;5624;49.388;11.350;2022-10-30T13:52:17;9.05;;;4.13;;
11139;SDS011;5624;49.388;11.350;2022-10-30T14:11:33;8.93;;;4.50;;
11139;SDS011;5624;49.388;11.350;2022-10-30T14:16:32;12.32;;;4.13;;
11139;SDS011;5624;49.388;11.350;2022-10-30T14:19:09;8.65;;;4.60;;
11139;SDS011;5624;49.388;11.350;2022-10-30T14:21:39;11.48;;;4.82;;
11139;SDS011;5624;49.388;11.350;2022-10-30T14:29:28;8.57;;;4.28;;
11139;SDS011;5624;49.388;11.350;2022-10-30T14:31:58;11.07;;;4.47;;
11139;SDS011;5624;49.388;11.350;2022-10-30T14:34:45;9.18;;;4.18;;
11139;SDS011;5624;49.388;11.350;2022-10-30T14:39:51;14.23;;;5.78;;
11139;SDS011;5624;49.388;11.350;2022-10-30T14:45:13;14.10;;;5.75;;
11139;SDS011;5624;49.388;11.350;2022-10-30T14:58:33;10.80;;;4.57;;
11139;SDS011;5624;49.388;11.350;2022-10-30T15:03:50;11.70;;;6.53;;
11139;SDS011;5624;49.388;11.350;2022-10-30T15:06:50;23.17;;;14.80;;
11139;SDS011;5624;49.388;11.350;2022-10-30T15:15:31;11.52;;;6.65;;
11139;SDS011;5624;49.388;11.350;2022-10-30T15:17:58;12.52;;;5.35;;
11139;SDS011;5624;49.388;11.350;2022-10-30T15:20:29;8.35;;;4.47;;
11139;SDS011;5624;49.388;11.350;2022-10-30T15:22:57;8.90;;;4.78;;
11139;SDS011;5624;49.388;11.350;2022-10-30T15:25:32;11.85;;;5.18;;
11139;SDS011;5624;49.388;11.350;2022-10-30T15:28:01;9.45;;;4.65;;
11139;SDS011;5624;49.388;11.350;2022-10-30T15:30:28;8.30;;;4.18;;
11139;SDS011;5624;49.388;11.350;2022-10-30T15:32:54;7.35;;;4.72;;
11139;SDS011;5624;49.388;11.350;2022-10-30T15:35:23;10.60;;;4.95;;
11139;SDS011;5624;49.388;11.350;2022-10-30T15:37:57;12.73;;;5.60;;
11139;SDS011;5624;49.388;11.350;2022-10-30T15:40:23;7.32;;;4.85;;
11139;SDS011;5624;49.388;11.350;2022-10-30T15:42:49;11.20;;;4.53;;
11139;SDS011;5624;49.388;11.350;2022-10-30T15:45:20;10.07;;;5.63;;
11139;SDS011;5624;49.388;11.350;2022-10-30T15:50:43;13.23;;;8.20;;
11139;SDS011;5624;49.388;11.350;2022-10-30T15:53:17;15.05;;;9.98;;
11139;SDS011;5624;49.388;11.350;2022-10-30T15:55:44;18.92;;;11.48;;
11139;SDS011;5624;49.388;11.350;2022-10-30T15:58:12;12.63;;;7.60;;
11139;SDS011;5624;49.388;11.350;2022-10-30T16:00:41;13.75;;;6.95;;
11139;SDS011;5624;49.388;11.350;2022-10-30T16:03:18;11.38;;;7.95;;
11139;SDS011;5624;49.388;11.350;2022-10-30T16:05:43;13.43;;;7.95;;
11139;SDS011;5624;49.388;11.350;2022-10-30T16:08:22;16.15;;;8.57;;
11139;SDS011;5624;49.388;11.350;2022-10-30T16:10:48;14.15;;;7.18;;
11139;SDS011;5624;49.388;11.350;2022-10-30T16:13:19;10.73;;;6.38;;
11139;SDS011;5624;49.388;11.350;2022-10-30T16:15:49;11.07;;;6.28;;
11139;SDS011;5624;49.388;11.350;2022-10-30T16:20:47;10.25;;;5.95;;
11139;SDS011;5624;49.388;11.350;2022-10-30T16:23:17;12.05;;;6.82;;
11139;SDS011;5624;49.388;11.350;2022-10-30T16:25:47;11.13;;;6.22;;
11139;SDS011;5624;49.388;11.350;2022-10-30T16:28:24;11.73;;;6.45;;
11139;SDS011;5624;49.388;11.350;2022-10-30T16:30:57;11.90;;;6.35;;
11139;SDS011;5624;49.388;11.350;2022-10-30T16:33:26;12.35;;;6.13;;
11139;SDS011;5624;49.388;11.350;2022-10-30T16:35:53;11.55;;;6.45;;
11139;SDS011;5624;49.388;11.350;2022-10-30T16:38:19;10.07;;;6.53;;
11139;SDS011;5624;49.388;11.350;2022-10-30T16:40:46;14.63;;;6.70;;
11139;SDS011;5624;49.388;11.350;2022-10-30T16:43:28;13.73;;;8.70;;
11139;SDS011;5624;49.388;11.350;2022-10-30T16:48:51;15.15;;;7.65;;
11139;SDS011;5624;49.388;11.350;2022-10-30T16:51:21;15.30;;;8.30;;
11139;SDS011;5624;49.388;11.350;2022-10-30T16:53:47;10.70;;;8.05;;
11139;SDS011;5624;49.388;11.350;2022-10-30T16:56:28;16.83;;;8.27;;
11139;SDS011;5624;49.388;11.350;2022-10-30T16:58:56;16.15;;;7.75;;
11139;SDS011;5624;49.388;11.350;2022-10-30T17:01:36;14.93;;;8.35;;
11139;SDS011;5624;49.388;11.350;2022-10-30T17:04:02;19.10;;;10.13;;
11139;SDS011;5624;49.388;11.350;2022-10-30T17:06:37;17.30;;;10.65;;
11139;SDS011;5624;49.388;11.350;2022-10-30T17:09:09;19.50;;;11.48;;
11139;SDS011;5624;49.388;11.350;2022-10-30T17:11:46;20.17;;;10.65;;
11139;SDS011;5624;49.388;11.350;2022-10-30T17:14:26;18.77;;;9.68;;
11139;SDS011;5624;49.388;11.350;2022-10-30T17:16:56;17.27;;;9.18;;
11139;SDS011;5624;49.388;11.350;2022-10-30T17:21:56;16.42;;;7.70;;
11139;SDS011;5624;49.388;11.350;2022-10-30T17:24:30;12.63;;;8.02;;
11139;SDS011;5624;49.388;11.350;2022-10-30T17:26:58;15.00;;;8.45;;
11139;SDS011;5624;49.388;11.350;2022-10-30T17:34:42;21.30;;;11.05;;
11139;SDS011;5624;49.388;11.350;2022-10-30T17:37:08;15.93;;;10.15;;
11139;SDS011;5624;49.388;11.350;2022-10-30T17:39:33;21.02;;;9.15;;
11139;SDS011;5624;49.388;11.350;2022-10-30T17:41:59;17.77;;;10.57;;
11139;SDS011;5624;49.388;11.350;2022-10-30T17:44:24;21.20;;;9.85;;
11139;SDS011;5624;49.388;11.350;2022-10-30T17:46:50;17.75;;;9.43;;
11139;SDS011;5624;49.388;11.350;2022-10-30T17:49:27;14.73;;;7.45;;
11139;SDS011;5624;49.388;11.350;2022-10-30T17:51:53;13.73;;;7.32;;
11139;SDS011;5624;49.388;11.350;2022-10-30T17:54:19;14.18;;;7.32;;
11139;SDS011;5624;49.388;11.350;2022-10-30T17:56:45;13.88;;;7.65;;
11139;SDS011;5624;49.388;11.350;2022-10-30T17:59:11;14.15;;;7.68;;